Time;durP1;ratioP1;P1;durP2;ratioP2;P2;SDS_P1;SDS_P2;PMS_P1;PMS_P2;Temp;Humidity;BMP_temperature;BMP_pressure;BME280_temperature;BME280_humidity;BME280_pressure;Samples;Min_cycle;Max_cycle;Signal;HPM_P1;HPM_P2
2022/03/19 00:01:49;;;;;;;57.03;38.27;;;;;;;5.34;100.00;152733.06;5053208;28;20458;-76
2022/03/19 00:04:25;;;;;;;53.97;38.57;;;;;;;5.36;100.00;152738.22;5055817;28;20464;-77
2022/03/19 00:07:00;;;;;;;57.97;40.07;;;;;;;5.32;100.00;152729.16;5039939;28;20446;-77
2022/03/19 00:09:39;;;;;;;56.43;38.50;;;;;;;5.34;100.00;152734.38;5049080;28;20446;-76
2022/03/19 00:12:16;;;;;;;53.27;37.27;;;;;;;5.31;100.00;152725.31;5051577;28;20937;-76
2022/03/19 00:14:51;;;;;;;60.23;39.80;;;;;;;5.30;100.00;152722.72;5054170;28;20486;-76
2022/03/19 00:17:27;;;;;;;57.23;39.47;;;;;;;5.23;100.00;152706.00;5048544;28;20525;-76
2022/03/19 00:20:04;;;;;;;60.20;41.50;;;;;;;5.22;100.00;152702.09;5050805;28;20489;-76
2022/03/19 00:22:40;;;;;;;59.20;39.60;;;;;;;5.22;100.00;152703.41;5075711;28;20458;-76
2022/03/19 00:25:16;;;;;;;57.10;39.80;;;;;;;5.20;100.00;152696.94;5059673;28;20442;-76
2022/03/19 00:27:52;;;;;;;54.90;38.30;;;;;;;5.18;100.00;152693.09;5052029;28;20442;-76
2022/03/19 00:30:29;;;;;;;55.50;39.50;;;;;;;5.14;100.00;152681.47;5052226;28;20435;-77
2022/03/19 00:33:04;;;;;;;57.50;38.60;;;;;;;5.12;100.00;152676.31;5041636;28;20439;-77
2022/03/19 00:35:40;;;;;;;52.60;38.37;;;;;;;5.15;100.00;152684.06;5055160;28;20458;-77
2022/03/19 00:38:16;;;;;;;52.70;37.20;;;;;;;5.12;100.00;152676.31;5037327;28;20458;-76
2022/03/19 00:40:51;;;;;;;53.20;37.23;;;;;;;5.11;100.00;152673.78;5041412;28;20453;-76
2022/03/19 00:43:28;;;;;;;53.00;38.10;;;;;;;5.06;100.00;152660.84;5054504;28;20876;-76
2022/03/19 00:46:04;;;;;;;52.20;34.53;;;;;;;5.07;100.00;152663.44;5053619;28;20776;-76
2022/03/19 00:48:40;;;;;;;55.30;38.97;;;;;;;5.04;100.00;152655.69;5043586;28;20470;-76
2022/03/19 00:51:15;;;;;;;57.87;37.23;;;;;;;5.06;100.00;152662.16;5054559;28;20470;-76
2022/03/19 00:53:51;;;;;;;54.30;37.53;;;;;;;5.02;100.00;152651.84;5052898;28;20450;-77
2022/03/19 00:56:27;;;;;;;64.33;39.90;;;;;;;5.04;100.00;152655.69;5044406;28;20533;-76
2022/03/19 00:59:04;;;;;;;52.87;34.10;;;;;;;5.00;100.00;152645.41;5036181;28;20451;-76
2022/03/19 01:01:39;;;;;;;55.93;34.97;;;;;;;4.92;100.00;152627.34;5049983;28;20453;-76
2022/03/19 01:04:15;;;;;;;53.23;36.77;;;;;;;4.95;100.00;152633.78;5050368;28;20925;-76
2022/03/19 01:06:51;;;;;;;54.87;37.40;;;;;;;5.00;100.00;152645.41;5058070;28;20633;-77
2022/03/19 01:09:27;;;;;;;52.87;37.20;;;;;;;5.00;99.57;152645.41;5045289;28;20459;-76
2022/03/19 01:12:02;;;;;;;53.17;36.03;;;;;;;4.98;99.51;152640.28;5057076;28;21032;-76
2022/03/19 01:14:40;;;;;;;57.23;37.03;;;;;;;4.96;99.21;152635.06;5054691;28;20932;-76
2022/03/19 01:17:15;;;;;;;49.33;34.50;;;;;;;4.99;99.17;152644.13;5063087;28;20446;-76
2022/03/19 01:19:53;;;;;;;50.47;35.73;;;;;;;4.95;98.78;152632.53;5044545;28;20441;-76
2022/03/19 01:22:29;;;;;;;51.33;35.57;;;;;;;4.95;98.77;152632.53;5055502;28;20471;-76
2022/03/19 01:25:06;;;;;;;47.43;35.83;;;;;;;4.86;98.41;152611.91;5055946;28;20473;-76
2022/03/19 01:27:44;;;;;;;49.00;33.50;;;;;;;4.91;98.10;152624.78;5049351;28;20537;-76
2022/03/19 01:30:22;;;;;;;54.53;36.87;;;;;;;4.91;98.49;152623.50;5055094;28;20455;-76
2022/03/19 01:32:58;;;;;;;49.37;34.43;;;;;;;4.90;97.83;152622.19;5070577;28;20928;-77
2022/03/19 01:35:34;;;;;;;55.37;35.67;;;;;;;4.85;98.20;152609.31;5073765;28;20556;-76
2022/03/19 01:38:09;;;;;;;51.13;34.87;;;;;;;4.83;98.49;152602.88;5077162;28;20437;-77
2022/03/19 01:40:45;;;;;;;52.67;36.97;;;;;;;4.84;98.15;152606.72;5052266;28;20446;-76
2022/03/19 01:43:21;;;;;;;49.23;34.47;;;;;;;4.90;97.53;152620.91;5060803;28;20470;-77
2022/03/19 01:45:58;;;;;;;53.77;38.60;;;;;;;4.85;97.94;152609.31;5058024;28;20482;-77
2022/03/19 01:48:34;;;;;;;48.67;34.20;;;;;;;4.79;97.88;152593.84;5048621;28;20443;-76
2022/03/19 01:51:10;;;;;;;51.43;35.83;;;;;;;4.77;98.07;152588.69;5054844;28;20984;-77
2022/03/19 01:53:45;;;;;;;54.33;36.87;;;;;;;4.75;98.16;152583.56;5059627;28;20442;-76
2022/03/19 01:56:21;;;;;;;49.20;34.67;;;;;;;4.77;97.52;152588.69;5063430;28;20967;-75
2022/03/19 01:58:56;;;;;;;55.23;37.30;;;;;;;4.76;97.83;152584.84;5056257;28;20442;-75
2022/03/19 02:01:34;;;;;;;51.00;34.83;;;;;;;4.76;97.07;152586.16;5056453;28;20454;-75
2022/03/19 02:04:09;;;;;;;45.83;32.50;;;;;;;4.75;97.29;152583.56;5049216;28;20439;-75
2022/03/19 02:06:46;;;;;;;49.47;35.20;;;;;;;4.76;96.92;152584.84;5040718;28;20493;-75
2022/03/19 02:09:23;;;;;;;53.70;37.63;;;;;;;4.73;97.14;152578.41;5054808;28;20819;-75
2022/03/19 02:11:58;;;;;;;43.33;33.23;;;;;;;4.71;96.81;152573.22;5046656;28;20916;-76
2022/03/19 02:14:34;;;;;;;47.10;31.20;;;;;;;4.69;96.33;152566.78;5058282;28;20463;-76
2022/03/19 02:17:11;;;;;;;48.07;34.27;;;;;;;4.71;96.47;152573.22;5052036;28;20461;-76
2022/03/19 02:19:49;;;;;;;53.63;37.87;;;;;;;4.68;96.24;152564.22;5052591;28;20459;-76
2022/03/19 02:22:26;;;;;;;51.83;35.57;;;;;;;4.67;96.65;152562.94;5038284;28;20467;-75
2022/03/19 02:27:57;;;;;;;55.07;34.27;;;;;;;4.68;96.52;152565.53;5039915;28;20874;-76
2022/03/19 02:30:33;;;;;;;47.60;36.07;;;;;;;4.64;95.51;152555.19;5047443;28;20455;-76
2022/03/19 02:33:09;;;;;;;55.00;33.90;;;;;;;4.60;95.74;152544.91;5057429;28;20430;-75
2022/03/19 02:35:44;;;;;;;47.57;32.80;;;;;;;4.56;96.13;152534.59;5046594;28;20489;-76
2022/03/19 02:38:20;;;;;;;45.30;31.43;;;;;;;4.62;95.66;152548.75;5053164;28;20838;-76
2022/03/19 02:40:57;;;;;;;51.63;34.97;;;;;;;4.65;95.59;152556.50;5050852;28;20446;-75
2022/03/19 02:43:32;;;;;;;54.80;34.93;;;;;;;4.58;95.40;152539.72;5050212;28;20545;-76
2022/03/19 02:46:08;;;;;;;48.53;33.67;;;;;;;4.64;95.32;152555.19;5072227;28;20454;-75
2022/03/19 02:48:44;;;;;;;50.50;32.93;;;;;;;4.62;95.42;152550.06;5043378;28;20458;-76
2022/03/19 02:51:20;;;;;;;51.40;33.80;;;;;;;4.57;95.64;152537.19;5052951;28;20485;-76
2022/03/19 02:53:55;;;;;;;50.50;33.50;;;;;;;4.56;95.50;152534.59;5031668;28;20534;-76
2022/03/19 02:56:35;;;;;;;51.90;34.13;;;;;;;4.56;94.57;152534.59;5051606;28;20458;-76
2022/03/19 02:59:12;;;;;;;49.40;34.03;;;;;;;4.56;95.14;152533.28;5030770;28;20452;-76
2022/03/19 03:01:48;;;;;;;47.90;32.80;;;;;;;4.51;95.12;152521.69;5063766;28;20840;-76
2022/03/19 03:04:24;;;;;;;49.30;33.63;;;;;;;4.49;95.85;152516.56;5058077;28;20919;-76
2022/03/19 03:07:00;;;;;;;48.57;35.23;;;;;;;4.50;95.49;152519.09;5054506;28;21477;-76
2022/03/19 03:09:36;;;;;;;44.20;31.20;;;;;;;4.46;95.11;152508.81;5030788;28;20467;-76
2022/03/19 03:12:13;;;;;;;41.40;31.40;;;;;;;4.40;95.96;152493.34;5055415;28;20515;-75
2022/03/19 03:14:48;;;;;;;49.83;33.87;;;;;;;4.38;95.75;152488.22;5060731;28;20450;-76
2022/03/19 03:17:24;;;;;;;44.60;32.40;;;;;;;4.34;96.57;152477.94;5057679;28;20441;-76
2022/03/19 03:20:00;;;;;;;49.70;32.53;;;;;;;4.31;96.38;152470.19;5057098;28;20532;-75
2022/03/19 03:22:37;;;;;;;46.80;33.57;;;;;;;4.31;95.99;152470.19;5058134;28;20466;-75
2022/03/19 03:25:13;;;;;;;46.03;32.87;;;;;;;4.22;96.39;152448.28;5042021;28;20448;-76
2022/03/19 03:27:51;;;;;;;47.83;33.00;;;;;;;4.22;96.18;152447.00;5049008;28;20459;-76
2022/03/19 03:30:27;;;;;;;44.50;32.60;;;;;;;4.23;96.17;152449.59;5045748;28;20455;-76
2022/03/19 03:33:03;;;;;;;44.60;30.87;;;;;;;4.23;95.75;152450.88;5058080;28;20434;-76
2022/03/19 03:35:39;;;;;;;50.90;34.93;;;;;;;4.20;95.95;152441.84;5057620;28;20485;-76
2022/03/19 03:38:14;;;;;;;50.80;34.60;;;;;;;4.17;95.88;152435.41;5054312;28;20445;-76
2022/03/19 03:40:50;;;;;;;48.67;33.63;;;;;;;4.17;96.21;152434.13;5073696;28;20462;-76
2022/03/19 03:43:27;;;;;;;50.13;33.77;;;;;;;4.19;95.78;152440.56;5053977;28;20458;-76
2022/03/19 03:46:04;;;;;;;48.20;34.00;;;;;;;4.19;95.93;152439.25;5048130;28;20451;-76
2022/03/19 03:48:40;;;;;;;44.50;31.63;;;;;;;4.14;96.09;152427.69;5038536;28;20449;-75
2022/03/19 03:51:16;;;;;;;46.30;32.73;;;;;;;4.15;95.61;152430.28;5052156;28;20570;-75
2022/03/19 03:53:51;;;;;;;43.50;31.50;;;;;;;4.13;95.48;152425.09;5052106;28;20462;-76
2022/03/19 03:56:27;;;;;;;50.70;34.00;;;;;;;4.14;95.22;152426.38;5047780;28;20451;-76
2022/03/19 03:59:05;;;;;;;45.53;32.97;;;;;;;4.16;95.20;152431.53;5067145;28;20839;-76
2022/03/19 04:01:40;;;;;;;49.87;33.50;;;;;;;4.11;95.66;152419.94;5042446;28;20852;-76
2022/03/19 04:04:16;;;;;;;47.17;32.50;;;;;;;4.09;95.55;152413.50;5040672;28;20470;-76
2022/03/19 04:06:51;;;;;;;41.83;30.57;;;;;;;4.12;95.28;152421.25;5055970;28;20435;-75
2022/03/19 04:09:27;;;;;;;42.83;29.50;;;;;;;4.11;94.61;152418.66;5044762;28;20451;-76
2022/03/19 04:12:04;;;;;;;43.80;31.07;;;;;;;4.12;94.96;152421.25;5050591;28;20476;-76
2022/03/19 04:14:41;;;;;;;44.40;30.03;;;;;;;4.14;94.60;152426.38;5074145;28;20803;-76
2022/03/19 04:17:17;;;;;;;48.47;32.87;;;;;;;4.06;94.89;152405.78;5053722;28;20442;-76
2022/03/19 04:19:52;;;;;;;44.17;31.47;;;;;;;4.01;95.53;152392.91;5049136;28;20438;-76
2022/03/19 04:22:34;;;;;;;48.43;33.23;;;;;;;4.00;95.04;152390.31;5056429;28;20811;-75
2022/03/19 04:25:11;;;;;;;41.60;30.10;;;;;;;4.01;95.46;152392.91;5054203;28;20557;-76
2022/03/19 04:27:48;;;;;;;47.20;31.90;;;;;;;3.95;95.65;152377.44;5053879;28;20450;-76
2022/03/19 04:30:27;;;;;;;43.03;31.87;;;;;;;3.90;95.58;152364.56;5049593;28;20450;-76
2022/03/19 04:33:04;;;;;;;47.73;31.67;;;;;;;3.89;95.77;152362.00;5057050;28;20449;-76
2022/03/19 04:38:32;;;;;;;47.10;30.07;;;;;;;3.93;94.64;152372.28;5052083;28;20435;-76
2022/03/19 04:41:08;;;;;;;47.60;31.63;;;;;;;3.89;94.47;152362.00;5058961;28;20453;-76
2022/03/19 04:43:44;;;;;;;45.67;32.70;;;;;;;3.91;94.99;152367.16;5061856;28;20453;-76
2022/03/19 04:46:21;;;;;;;47.83;33.07;;;;;;;3.96;93.09;152380.03;5043806;28;20453;-76
2022/03/19 04:48:57;;;;;;;43.63;31.43;;;;;;;3.90;93.71;152364.56;5036649;28;20473;-76
2022/03/19 04:51:34;;;;;;;47.73;33.13;;;;;;;3.93;93.75;152372.28;5057380;28;20474;-76
2022/03/19 04:54:09;;;;;;;44.77;30.87;;;;;;;3.86;93.64;152355.56;5053957;28;20454;-76
2022/03/19 04:56:45;;;;;;;44.50;31.60;;;;;;;3.90;93.58;152364.56;5057515;28;20439;-76
2022/03/19 04:59:21;;;;;;;44.30;31.90;;;;;;;3.83;93.55;152346.56;5075330;28;20449;-76
2022/03/19 05:01:58;;;;;;;44.23;30.40;;;;;;;3.82;93.76;152345.25;5075632;28;20445;-76
2022/03/19 05:04:33;;;;;;;48.00;31.00;;;;;;;3.80;93.63;152340.13;5053181;28;20474;-76
2022/03/19 05:07:10;;;;;;;43.47;31.17;;;;;;;3.83;92.81;152346.56;5057317;28;20455;-76
2022/03/19 05:12:40;;;;;;;51.47;30.37;;;;;;;3.77;93.25;152331.09;5055709;28;20875;-76
2022/03/19 05:15:17;;;;;;;44.10;31.07;;;;;;;3.76;92.99;152328.53;5057539;28;20804;-75
2022/03/19 05:17:54;;;;;;;43.93;30.80;;;;;;;3.76;93.22;152329.78;5052235;28;20432;-75
2022/03/19 05:20:29;;;;;;;39.60;30.30;;;;;;;3.72;93.29;152319.50;5058221;28;20481;-76
2022/03/19 05:23:06;;;;;;;43.47;29.97;;;;;;;3.70;93.62;152314.38;5068609;28;20465;-76
2022/03/19 05:25:42;;;;;;;40.00;28.77;;;;;;;3.73;92.41;152320.81;5055288;28;20452;-76
2022/03/19 05:28:17;;;;;;;43.80;29.73;;;;;;;3.73;93.16;152320.81;5053194;28;20946;-76
2022/03/19 05:30:54;;;;;;;40.93;28.87;;;;;;;3.75;92.05;152327.25;5038778;28;20450;-76
2022/03/19 05:36:29;;;;;;;45.80;29.40;;;;;;;3.78;91.02;152333.69;5044921;28;20487;-75
2022/03/19 05:39:05;;;;;;;41.77;30.30;;;;;;;3.78;90.96;152334.97;5059564;28;20434;-76
2022/03/19 05:41:40;;;;;;;43.83;31.53;;;;;;;3.76;91.20;152329.78;5056100;28;20430;-75
2022/03/19 05:44:16;;;;;;;37.90;27.57;;;;;;;3.76;90.65;152328.53;5044220;28;20801;-76
2022/03/19 05:46:52;;;;;;;40.23;29.40;;;;;;;3.82;90.76;152343.97;5062997;28;20474;-76
2022/03/19 05:49:30;;;;;;;40.13;28.53;;;;;;;3.78;90.76;152334.97;5055664;28;20931;-76
2022/03/19 05:52:06;;;;;;;43.10;30.30;;;;;;;3.80;90.19;152338.81;5056166;28;20952;-76
2022/03/19 05:54:42;;;;;;;42.60;30.27;;;;;;;3.79;90.14;152336.22;5044568;28;20441;-76
2022/03/19 05:57:17;;;;;;;42.23;29.20;;;;;;;3.78;89.98;152333.69;5059649;28;20426;-76
2022/03/19 05:59:53;;;;;;;38.20;27.80;;;;;;;3.83;89.63;152346.56;5059736;28;20440;-75
2022/03/19 06:02:28;;;;;;;42.53;28.40;;;;;;;3.83;89.63;152346.56;5043571;28;20478;-76
2022/03/19 06:05:08;;;;;;;40.67;27.73;;;;;;;3.86;89.93;152355.56;5061005;28;20465;-76
2022/03/19 06:07:44;;;;;;;47.03;30.67;;;;;;;3.88;89.67;152359.44;5043679;28;20677;-76
2022/03/19 06:10:19;;;;;;;41.37;28.97;;;;;;;3.90;89.89;152364.56;5052186;28;20462;-76
2022/03/19 06:12:56;;;;;;;37.90;27.23;;;;;;;3.94;88.75;152374.88;5056467;28;20450;-76
2022/03/19 06:15:31;;;;;;;44.97;31.13;;;;;;;3.97;89.19;152382.63;5058647;28;20451;-76
2022/03/19 06:18:06;;;;;;;40.07;28.97;;;;;;;4.00;88.45;152390.31;5056276;28;20444;-75
2022/03/19 06:20:43;;;;;;;44.83;29.80;;;;;;;4.04;88.35;152400.63;5040134;28;20893;-76
2022/03/19 06:23:19;;;;;;;43.40;30.20;;;;;;;4.13;87.69;152425.09;5066487;28;20463;-75
2022/03/19 06:25:55;;;;;;;41.33;29.57;;;;;;;4.21;86.99;152444.41;5058033;28;20464;-76
2022/03/19 06:28:30;;;;;;;41.40;30.10;;;;;;;4.33;86.94;152475.34;5061200;28;20446;-75
2022/03/19 06:31:06;;;;;;;38.27;29.27;;;;;;;4.43;85.76;152499.78;5045734;28;20542;-76
2022/03/19 06:33:42;;;;;;;40.90;29.23;;;;;;;4.55;84.65;152532.03;5055952;28;20960;-76
2022/03/19 06:39:13;;;;;;;37.67;28.30;;;;;;;4.71;83.56;152573.22;5040393;28;20442;-76
2022/03/19 06:41:49;;;;;;;42.20;27.97;;;;;;;4.84;84.39;152606.72;5029512;28;20522;-76
2022/03/19 06:44:25;;;;;;;42.90;30.47;;;;;;;4.94;83.30;152631.22;5057050;28;20470;-76
2022/03/19 06:47:00;;;;;;;43.13;29.33;;;;;;;5.02;83.93;152651.84;5050589;28;20462;-76
2022/03/19 06:49:36;;;;;;;45.43;30.23;;;;;;;5.11;82.03;152673.78;5052698;28;20457;-76
2022/03/19 06:52:13;;;;;;;40.00;29.17;;;;;;;5.14;81.70;152682.78;5060071;28;20469;-76
2022/03/19 06:54:49;;;;;;;43.40;29.60;;;;;;;5.22;81.97;152702.09;5039902;28;20831;-76
2022/03/19 06:57:24;;;;;;;49.30;30.40;;;;;;;5.33;81.62;152731.78;5050557;28;20446;-75
2022/03/19 07:00:01;;;;;;;43.93;30.33;;;;;;;5.40;81.97;152749.81;5038868;28;20794;-75
2022/03/19 07:02:46;;;;;;;44.63;29.80;;;;;;;5.54;82.86;152785.91;5056310;28;20435;-75
2022/03/19 07:05:30;;;;;;;40.57;30.10;;;;;;;5.60;81.06;152800.09;5042437;28;20471;-75
2022/03/19 07:08:10;;;;;;;39.97;26.47;;;;;;;5.66;80.67;152814.28;5035367;28;20450;-77
2022/03/19 07:10:45;;;;;;;42.83;30.77;;;;;;;5.62;80.01;152805.25;5050061;28;20479;-76
2022/03/19 07:13:21;;;;;;;44.97;28.97;;;;;;;5.58;80.02;152794.97;5032366;28;20450;-76
2022/03/19 07:15:56;;;;;;;35.20;27.27;;;;;;;5.65;79.17;152811.69;5057746;28;20442;-76
2022/03/19 07:18:32;;;;;;;40.73;29.90;;;;;;;5.69;78.47;152823.34;5051945;28;20447;-76
2022/03/19 07:21:07;;;;;;;42.90;30.67;;;;;;;5.71;78.08;152827.19;5057353;28;20473;-76
2022/03/19 07:23:45;;;;;;;42.43;29.80;;;;;;;5.67;78.07;152818.16;5049045;28;20459;-74
2022/03/19 07:26:20;;;;;;;36.70;27.70;;;;;;;5.88;77.96;152871.06;5051641;28;21097;-76
2022/03/19 07:28:56;;;;;;;36.73;27.50;;;;;;;5.86;77.09;152867.22;5054473;28;20584;-76
2022/03/19 07:31:32;;;;;;;37.27;27.13;;;;;;;6.00;76.66;152903.34;5049137;28;20441;-76
2022/03/19 07:34:07;;;;;;;39.93;27.40;;;;;;;6.09;75.16;152925.22;5075929;28;20437;-76
2022/03/19 07:36:44;;;;;;;40.57;28.60;;;;;;;6.23;74.67;152960.06;5060121;28;20449;-77
2022/03/19 07:39:21;;;;;;;40.77;28.60;;;;;;;6.34;73.78;152988.47;5041371;28;20457;-76
2022/03/19 07:41:56;;;;;;;36.10;26.50;;;;;;;6.46;72.70;153019.47;5050279;28;20443;-76
2022/03/19 07:44:36;;;;;;;40.27;27.50;;;;;;;6.61;72.59;153059.47;5054109;28;20477;-76
2022/03/19 07:47:11;;;;;;;31.73;24.30;;;;;;;6.65;71.64;153069.78;5058076;28;20439;-76
2022/03/19 07:49:47;;;;;;;34.50;24.50;;;;;;;6.77;70.75;153098.19;5048396;28;20450;-76
2022/03/19 07:52:24;;;;;;;33.87;25.50;;;;;;;6.80;70.56;153105.91;5055384;28;20528;-76
2022/03/19 07:55:01;;;;;;;36.90;27.50;;;;;;;6.92;70.38;153136.88;5061640;28;20454;-76
2022/03/19 07:57:36;;;;;;;39.30;26.30;;;;;;;7.06;68.48;153173.03;5039742;28;20445;-76
2022/03/19 08:00:13;;;;;;;35.30;25.73;;;;;;;7.03;66.92;153166.59;5058074;28;20442;-76
2022/03/19 08:02:52;;;;;;;31.80;25.50;;;;;;;6.92;66.34;153138.19;5048017;28;20443;-76
2022/03/19 08:05:27;;;;;;;29.20;23.93;;;;;;;7.23;65.47;153216.91;5047409;28;20475;-76
2022/03/19 08:08:05;;;;;;;33.20;25.63;;;;;;;7.10;65.17;153184.66;5024445;28;20458;-76
2022/03/19 08:10:42;;;;;;;32.80;23.60;;;;;;;7.15;65.30;153197.56;5033208;28;21067;-76
2022/03/19 08:13:18;;;;;;;30.50;24.07;;;;;;;7.31;64.82;153238.88;5070049;28;20446;-76
2022/03/19 08:15:53;;;;;;;34.50;24.97;;;;;;;7.52;62.92;153290.56;5044716;28;20824;-76
2022/03/19 08:18:30;;;;;;;32.97;26.47;;;;;;;7.33;62.47;153242.78;5057104;28;20446;-77
2022/03/19 08:21:05;;;;;;;33.67;24.47;;;;;;;7.24;62.58;153219.53;5039677;28;20454;-76
2022/03/19 08:23:41;;;;;;;36.47;25.30;;;;;;;7.21;61.80;153213.06;5055344;28;20949;-76
2022/03/19 08:26:18;;;;;;;28.70;22.50;;;;;;;7.14;61.18;153195.00;5051757;28;20835;-77
2022/03/19 08:28:53;;;;;;;29.97;23.17;;;;;;;7.11;61.53;153187.25;5053396;28;20431;-76
2022/03/19 08:31:28;;;;;;;33.10;25.00;;;;;;;7.21;61.24;153213.06;5055887;28;20481;-76
2022/03/19 08:34:04;;;;;;;30.20;22.10;;;;;;;7.22;60.86;153215.66;5056578;28;20450;-76
2022/03/19 08:36:40;;;;;;;32.87;23.43;;;;;;;7.16;61.17;153198.84;5052059;28;20446;-76
2022/03/19 08:42:10;;;;;;;29.87;22.13;;;;;;;7.30;61.03;153235.03;5051579;28;20440;-76
2022/03/19 08:44:45;;;;;;;24.40;20.00;;;;;;;7.50;60.10;153286.66;5051115;28;21200;-76
2022/03/19 08:47:22;;;;;;;28.63;22.23;;;;;;;7.64;58.23;153322.84;5044267;28;20462;-76
2022/03/19 08:49:57;;;;;;;27.37;21.50;;;;;;;7.57;58.68;153303.47;5056304;28;20530;-76
2022/03/19 08:52:33;;;;;;;29.30;20.83;;;;;;;7.43;58.38;153268.59;5044741;28;20453;-76
2022/03/19 08:55:10;;;;;;;29.30;21.33;;;;;;;7.56;58.62;153300.88;5055108;28;20626;-76
2022/03/19 08:57:47;;;;;;;30.50;22.07;;;;;;;7.64;59.18;153322.84;5071613;28;20445;-76
2022/03/19 09:00:22;;;;;;;25.83;20.37;;;;;;;7.69;59.29;153334.47;5059508;28;20453;-75
2022/03/19 09:02:58;;;;;;;28.20;21.67;;;;;;;7.45;59.16;153272.47;5047118;28;20449;-76
2022/03/19 09:05:34;;;;;;;25.20;20.20;;;;;;;7.49;58.62;153282.81;5060610;28;20466;-76
2022/03/19 09:08:10;;;;;;;29.47;22.60;;;;;;;7.66;58.86;153326.72;5045465;28;20452;-76
2022/03/19 09:10:45;;;;;;;29.07;21.73;;;;;;;7.74;58.30;153347.38;5042334;28;20498;-76
2022/03/19 09:13:23;;;;;;;30.03;21.53;;;;;;;7.78;58.10;153357.72;5075452;28;20477;-76
2022/03/19 09:15:58;;;;;;;33.07;23.30;;;;;;;7.69;58.58;153334.47;5053743;28;20454;-76
2022/03/19 09:18:35;;;;;;;32.00;23.17;;;;;;;7.61;58.09;153313.78;5070182;28;20467;-76
2022/03/19 09:21:11;;;;;;;33.63;23.77;;;;;;;7.52;58.36;153291.81;5040409;28;20434;-76
2022/03/19 09:23:49;;;;;;;32.90;23.43;;;;;;;7.59;59.34;153308.63;5030971;28;20455;-76
2022/03/19 09:26:25;;;;;;;29.70;23.80;;;;;;;7.71;59.17;153339.63;5050597;28;20477;-76
2022/03/19 09:29:02;;;;;;;31.70;24.53;;;;;;;7.67;58.67;153329.31;5036884;28;20459;-76
2022/03/19 09:31:38;;;;;;;30.83;22.73;;;;;;;7.72;58.70;153342.22;5050290;28;20436;-76
2022/03/19 09:34:13;;;;;;;29.03;23.13;;;;;;;7.66;58.87;153326.72;5056632;28;20476;-76
2022/03/19 09:36:48;;;;;;;30.53;23.97;;;;;;;7.85;58.47;153377.09;5047604;28;20434;-76
2022/03/19 09:39:24;;;;;;;26.70;20.83;;;;;;;7.85;58.16;153375.81;5038830;28;20454;-76
2022/03/19 09:42:00;;;;;;;27.70;21.47;;;;;;;7.94;57.96;153399.09;5052118;28;20455;-76
2022/03/19 09:44:37;;;;;;;32.00;23.93;;;;;;;7.92;58.03;153395.19;5051422;28;20569;-76
2022/03/19 09:47:14;;;;;;;32.60;25.20;;;;;;;8.05;57.35;153426.22;5046349;28;20455;-76
2022/03/19 09:49:49;;;;;;;33.70;23.67;;;;;;;7.98;58.10;153409.41;5057844;28;20438;-76
2022/03/19 09:52:29;;;;;;;30.40;22.80;;;;;;;8.02;58.35;153419.75;5057820;28;20951;-77
2022/03/19 09:55:05;;;;;;;34.57;24.10;;;;;;;8.10;58.35;153440.38;5073938;28;20517;-76
2022/03/19 09:57:41;;;;;;;28.53;22.60;;;;;;;8.19;60.03;153463.66;5041344;28;20854;-76
2022/03/19 10:00:22;;;;;;;32.70;24.63;;;;;;;8.33;57.93;153498.63;5059155;28;20433;-76
2022/03/19 10:02:59;;;;;;;32.43;23.13;;;;;;;8.30;58.06;153492.16;5040861;28;20439;-76
2022/03/19 10:08:39;;;;;;;29.23;23.63;;;;;;;8.55;58.75;153555.50;5057079;28;20445;-77
2022/03/19 10:11:17;;;;;;;29.10;23.30;;;;;;;8.72;57.88;153598.13;5052800;28;20938;-76
2022/03/19 10:13:53;;;;;;;31.90;22.50;;;;;;;8.43;56.87;153525.75;5057399;28;20439;-76
2022/03/19 10:16:30;;;;;;;26.63;21.07;;;;;;;8.69;56.27;153590.38;5053062;28;20443;-76
2022/03/19 10:19:07;;;;;;;28.10;23.60;;;;;;;8.80;57.30;153618.81;5043599;28;20438;-76
2022/03/19 10:21:44;;;;;;;30.47;24.43;;;;;;;8.73;56.22;153600.72;5068655;28;20446;-76
2022/03/19 10:24:22;;;;;;;31.23;23.90;;;;;;;8.42;56.55;153523.16;5072713;28;20529;-76
2022/03/19 10:26:58;;;;;;;36.50;25.03;;;;;;;8.69;58.50;153591.66;5040787;28;20540;-76
2022/03/19 10:29:37;;;;;;;28.33;21.63;;;;;;;8.73;57.48;153600.72;5057820;28;20450;-76
2022/03/19 10:32:16;;;;;;;31.30;24.70;;;;;;;8.63;57.03;153574.88;5060590;28;20956;-76
2022/03/19 10:34:54;;;;;;;33.00;24.80;;;;;;;8.72;57.24;153599.44;5049518;28;20465;-76
2022/03/19 10:37:35;;;;;;;30.13;24.60;;;;;;;8.67;57.98;153585.22;5042693;28;20449;-76
2022/03/19 10:40:10;;;;;;;29.90;23.83;;;;;;;8.62;56.43;153572.28;5043706;28;20446;-76
2022/03/19 10:42:45;;;;;;;30.37;24.10;;;;;;;8.71;57.35;153595.56;5036593;28;20446;-77
2022/03/19 10:45:23;;;;;;;31.33;23.30;;;;;;;9.11;56.92;153698.97;5030953;28;20823;-76
2022/03/19 10:48:01;;;;;;;33.40;24.27;;;;;;;9.17;58.00;153714.50;5050524;28;20488;-76
2022/03/19 10:50:40;;;;;;;31.40;25.13;;;;;;;9.00;57.73;153670.56;5064175;28;20479;-76
2022/03/19 10:53:15;;;;;;;34.00;25.20;;;;;;;8.91;57.89;153647.28;5050517;28;20438;-77
2022/03/19 10:55:51;;;;;;;33.00;25.17;;;;;;;8.93;57.98;153652.44;5053315;28;20452;-76
2022/03/19 10:58:27;;;;;;;37.07;25.37;;;;;;;8.93;58.37;153653.72;5056580;28;20866;-76
2022/03/19 11:01:03;;;;;;;29.70;26.03;;;;;;;9.10;59.47;153696.41;5036169;28;20812;-76
2022/03/19 11:03:42;;;;;;;38.23;26.80;;;;;;;9.06;59.21;153686.06;5063690;28;20458;-76
2022/03/19 11:06:20;;;;;;;33.13;25.80;;;;;;;9.24;59.97;153732.59;5039465;28;20502;-77
2022/03/19 11:08:57;;;;;;;31.47;24.80;;;;;;;9.46;59.44;153789.53;5044260;28;20454;-76
2022/03/19 11:11:45;;;;;;;29.07;23.60;;;;;;;9.55;58.63;153811.53;5070035;28;20503;-76
2022/03/19 11:14:24;;;;;;;30.80;24.20;;;;;;;9.55;58.96;153811.53;5048610;28;20458;-76
2022/03/19 11:19:59;;;;;;;26.07;20.20;;;;;;;9.24;54.87;153732.59;5052703;28;20537;-76
2022/03/19 11:22:39;;;;;;;32.70;21.63;;;;;;;9.01;55.65;153674.44;5053110;28;20957;-76
2022/03/19 11:25:20;;;;;;;24.00;18.93;;;;;;;9.01;55.50;153673.13;5036248;28;20471;-76
2022/03/19 11:27:59;;;;;;;24.70;19.00;;;;;;;9.13;55.75;153704.19;5056160;28;20449;-76
2022/03/19 11:30:36;;;;;;;24.93;19.30;;;;;;;9.08;54.61;153691.25;5046923;28;20983;-77
2022/03/19 11:33:17;;;;;;;18.40;15.77;;;;;;;9.11;52.62;153698.97;5029242;28;20439;-76
2022/03/19 11:36:06;;;;;;;18.20;15.20;;;;;;;9.12;52.08;153701.59;5041646;28;21009;-76
2022/03/19 11:38:43;;;;;;;18.00;14.10;;;;;;;9.09;50.08;153695.13;5060555;28;20529;-76
2022/03/19 11:41:22;;;;;;;16.30;14.07;;;;;;;9.21;49.71;153724.88;5046756;28;21692;-76
2022/03/19 11:44:16;;;;;;;17.77;13.53;;;;;;;9.32;49.70;153752.03;5035271;28;20530;-76
2022/03/19 11:46:56;;;;;;;16.60;13.47;;;;;;;9.39;50.50;153771.44;5041519;28;20461;-75
2022/03/19 11:49:49;;;;;;;18.07;12.30;;;;;;;9.45;50.10;153786.94;5037868;28;20467;-77
2022/03/19 11:53:01;;;;;;;17.70;12.73;;;;;;;9.42;49.61;153779.22;5050967;28;20438;-76
2022/03/19 11:55:42;;;;;;;15.73;11.70;;;;;;;9.41;48.93;153776.59;5050616;28;20451;-77
2022/03/19 11:58:26;;;;;;;17.73;12.37;;;;;;;9.54;50.72;153810.25;5031669;28;20483;-76
2022/03/19 12:01:04;;;;;;;14.97;11.03;;;;;;;9.57;49.29;153816.69;5046905;28;20493;-76
2022/03/19 12:04:11;;;;;;;17.13;13.77;;;;;;;9.65;51.99;153838.72;5050647;28;20442;-76
2022/03/19 12:06:51;;;;;;;18.10;13.87;;;;;;;9.44;52.10;153784.38;5035579;28;20574;-76
2022/03/19 12:10:00;;;;;;;19.67;13.30;;;;;;;9.53;52.70;153807.63;5055539;28;20462;-77
2022/03/19 12:12:37;;;;;;;14.57;11.23;;;;;;;9.81;52.88;153878.81;5038880;28;20458;-77
2022/03/19 12:15:49;;;;;;;16.87;11.53;;;;;;;9.57;51.15;153816.69;5062546;28;20439;-76
2022/03/19 12:18:28;;;;;;;15.70;12.07;;;;;;;9.40;50.55;153774.00;5005681;28;20525;-77
2022/03/19 12:21:15;;;;;;;13.73;10.30;;;;;;;9.34;49.65;153758.50;5050481;28;20443;-76
2022/03/19 12:24:03;;;;;;;14.93;11.03;;;;;;;9.31;51.22;153750.75;5052855;28;20443;-76
2022/03/19 12:26:41;;;;;;;14.73;11.00;;;;;;;9.56;51.57;153814.09;5038411;28;21087;-77